Time;durP1;ratioP1;P1;durP2;ratioP2;P2;SDS_P1;SDS_P2;PMS_P1;PMS_P2;Temp;Humidity;BMP_temperature;BMP_pressure;BME280_temperature;BME280_humidity;BME280_pressure;Samples;Min_cycle;Max_cycle;Signal;HPM_P1;HPM_P2
2020/12/25 00:02:16;;;;;;;17.73;10.28;;;;;;;3.94;82.43;99929.05;1780395;80;21152;-77
2020/12/25 00:04:42;;;;;;;19.37;10.05;;;;;;;3.92;82.44;99927.02;1693838;83;21212;-77
2020/12/25 00:07:08;;;;;;;21.17;10.80;;;;;;;3.91;82.44;99926.66;1777323;80;21082;-77
2020/12/25 00:09:34;;;;;;;19.48;10.23;;;;;;;3.90;82.44;99923.70;1766951;81;21544;-77
2020/12/25 00:12:01;;;;;;;18.67;9.85;;;;;;;3.88;82.45;99926.47;1761199;81;21177;-77
2020/12/25 00:14:27;;;;;;;21.50;10.88;;;;;;;3.88;82.45;99928.27;1786661;80;21147;-77
2020/12/25 00:16:53;;;;;;;18.60;9.38;;;;;;;3.88;82.42;99928.27;1737064;82;21256;-77
2020/12/25 00:19:20;;;;;;;16.00;7.45;;;;;;;3.89;82.44;99935.22;1786790;80;21155;-77
2020/12/25 00:21:46;;;;;;;18.90;9.08;;;;;;;3.93;82.46;99943.20;1749389;81;21121;-77
2020/12/25 00:24:12;;;;;;;19.20;9.98;;;;;;;3.94;82.46;99946.20;1786832;79;21569;-77
2020/12/25 00:26:39;;;;;;;18.80;9.78;;;;;;;3.95;82.47;99943.89;1784322;80;21628;-77
2020/12/25 00:29:05;;;;;;;30.72;15.48;;;;;;;3.96;82.46;99945.56;1786941;80;21182;-77
2020/12/25 00:31:35;;;;;;;39.48;17.05;;;;;;;3.94;82.46;99952.80;1750300;81;21559;-77
2020/12/25 00:34:06;;;;;;;33.35;14.60;;;;;;;3.92;82.47;99956.88;1748119;81;21172;-77
2020/12/25 00:36:37;;;;;;;33.05;12.75;;;;;;;3.92;82.48;99961.31;1775705;80;21132;-77
2020/12/25 00:39:10;;;;;;;30.92;13.78;;;;;;;3.89;82.49;99961.59;1785913;80;21513;-77
2020/12/25 00:41:42;;;;;;;48.98;15.85;;;;;;;3.89;82.47;99963.75;1786114;80;21120;-77
2020/12/25 00:44:08;;;;;;;33.25;11.55;;;;;;;3.90;82.48;99962.79;1785430;79;21171;-77
2020/12/25 00:46:34;;;;;;;38.58;11.75;;;;;;;3.89;82.48;99965.55;1785173;80;21171;-77
2020/12/25 00:49:01;;;;;;;44.88;12.00;;;;;;;3.91;82.49;99971.51;1769962;80;21211;-77
2020/12/25 00:51:27;;;;;;;49.48;15.90;;;;;;;3.92;82.49;99975.82;1782172;80;21188;-77
2020/12/25 00:53:53;;;;;;;59.35;17.52;;;;;;;3.91;82.49;99978.10;1742066;81;22004;-77
2020/12/25 00:56:19;;;;;;;59.85;18.05;;;;;;;3.91;82.50;99980.74;1753386;81;21156;-77
2020/12/25 00:58:46;;;;;;;49.70;16.40;;;;;;;3.91;82.50;99988.65;1753478;81;21143;-77
2020/12/25 01:01:13;;;;;;;40.40;12.33;;;;;;;3.91;82.51;99983.38;1753228;81;21140;-77
2020/12/25 01:03:41;;;;;;;25.72;9.80;;;;;;;3.89;82.51;99986.66;1753458;81;21136;-77
2020/12/25 01:06:18;;;;;;;19.82;7.92;;;;;;;3.89;82.53;99986.66;1753278;81;22103;-77
2020/12/25 01:08:46;;;;;;;27.98;10.65;;;;;;;3.88;82.51;99994.20;1676985;84;21612;-77
2020/12/25 01:11:13;;;;;;;41.13;11.63;;;;;;;3.88;82.52;99991.57;1689435;85;21148;-77
2020/12/25 01:13:40;;;;;;;33.80;10.30;;;;;;;3.88;82.49;99996.84;1689464;84;21204;-77
2020/12/25 01:16:10;;;;;;;24.87;9.33;;;;;;;3.87;82.50;99999.16;1689560;84;21228;-77
2020/12/25 01:18:36;;;;;;;28.42;9.00;;;;;;;3.86;82.50;100010.19;1698533;83;23133;-77
2020/12/25 01:21:03;;;;;;;21.77;9.38;;;;;;;3.86;82.50;100014.63;1719744;83;21560;-77
2020/12/25 01:23:29;;;;;;;28.17;9.70;;;;;;;3.88;82.50;100015.31;1719672;82;21641;-77
2020/12/25 01:25:56;;;;;;;20.43;8.48;;;;;;;3.89;82.50;100019.63;1719827;83;21137;-77
2020/12/25 01:28:22;;;;;;;17.92;6.80;;;;;;;3.87;82.52;100026.84;1719833;83;21193;-77
2020/12/25 01:30:48;;;;;;;15.20;6.65;;;;;;;3.87;82.53;100029.48;1719874;83;21243;-77
2020/12/25 01:33:15;;;;;;;24.12;8.15;;;;;;;3.85;82.54;100028.77;1719826;83;21153;-77
2020/12/25 01:35:41;;;;;;;24.80;9.48;;;;;;;3.85;82.55;100031.41;1719848;83;21161;-77
2020/12/25 01:38:07;;;;;;;23.12;8.73;;;;;;;3.84;82.55;100027.09;1719832;83;21573;-77
2020/12/25 01:40:33;;;;;;;16.27;5.72;;;;;;;3.82;82.56;100029.89;1710668;83;21153;-77
2020/12/25 01:43:00;;;;;;;10.55;5.45;;;;;;;3.80;82.53;100035.77;1691126;84;21207;-77
2020/12/25 01:45:26;;;;;;;15.53;6.22;;;;;;;3.79;82.54;100035.92;1696749;83;21164;-77
2020/12/25 01:47:54;;;;;;;12.58;4.83;;;;;;;3.80;82.54;100041.55;1719835;83;21112;-77
2020/12/25 01:50:23;;;;;;;12.93;5.10;;;;;;;3.79;82.54;100042.52;1719895;82;21168;-77
2020/12/25 01:52:52;;;;;;;13.53;5.22;;;;;;;3.80;82.56;100049.46;1719694;83;21148;-78
2020/12/25 01:55:18;;;;;;;15.55;4.85;;;;;;;3.80;82.58;100045.51;1690218;83;21224;-78
2020/12/25 01:57:44;;;;;;;10.80;4.75;;;;;;;3.80;82.58;100044.19;1719569;83;21168;-78
2020/12/25 02:00:10;;;;;;;13.50;6.08;;;;;;;3.79;82.62;100045.15;1719920;83;21160;-78
2020/12/25 02:02:37;;;;;;;10.93;5.25;;;;;;;3.77;82.62;100040.48;1719777;83;21208;-78
2020/12/25 02:05:03;;;;;;;11.35;4.60;;;;;;;3.76;82.62;100048.06;1719759;83;21754;-78
2020/12/25 02:07:29;;;;;;;11.95;5.08;;;;;;;3.75;82.66;100043.75;1732268;80;21553;-78
2020/12/25 02:09:56;;;;;;;8.23;4.40;;;;;;;3.73;82.62;100045.70;1726879;83;21196;-78
2020/12/25 02:12:22;;;;;;;10.95;4.62;;;;;;;3.67;82.64;100044.41;1711719;82;21128;-78
2020/12/25 02:14:48;;;;;;;7.03;3.72;;;;;;;3.63;82.68;100044.81;1739329;82;21554;-78
2020/12/25 02:17:15;;;;;;;8.48;3.75;;;;;;;3.61;82.69;100045.44;1739574;82;21648;-78
2020/12/25 02:19:41;;;;;;;11.00;4.17;;;;;;;3.58;82.72;100047.03;1739486;82;21206;-78
2020/12/25 02:22:07;;;;;;;8.90;4.50;;;;;;;3.55;82.74;100049.94;1739470;82;21148;-78
2020/12/25 02:24:33;;;;;;;12.10;4.40;;;;;;;3.53;82.75;100046.94;1739416;82;21156;-78
2020/12/25 02:27:00;;;;;;;7.92;4.33;;;;;;;3.56;82.78;100047.16;1749296;81;21161;-78
2020/12/25 02:29:26;;;;;;;12.18;5.35;;;;;;;3.55;82.81;100049.94;1770176;81;21153;-78
2020/12/25 02:31:52;;;;;;;8.23;3.95;;;;;;;3.55;82.85;100049.94;1740394;80;22045;-78
2020/12/25 02:34:18;;;;;;;10.88;4.97;;;;;;;3.52;82.89;100058.92;1696393;84;21524;-78
2020/12/25 02:36:45;;;;;;;9.18;4.70;;;;;;;3.50;82.92;100057.76;1737885;82;21144;-78
2020/12/25 02:39:11;;;;;;;8.75;5.30;;;;;;;3.50;82.94;100066.98;1747757;81;21157;-78
2020/12/25 02:41:37;;;;;;;9.30;4.87;;;;;;;3.49;83.01;100066.63;1728273;83;21131;-78
2020/12/25 02:44:03;;;;;;;10.15;4.92;;;;;;;3.48;83.00;100078.13;1728221;81;21231;-78
2020/12/25 02:46:30;;;;;;;8.43;4.45;;;;;;;3.45;83.02;100078.40;1728203;83;21144;-78
2020/12/25 02:48:56;;;;;;;13.18;5.80;;;;;;;3.44;83.05;100073.28;1728276;83;21156;-77
2020/12/25 02:51:22;;;;;;;13.62;5.53;;;;;;;3.44;83.06;100079.86;1728415;81;21562;-77
2020/12/25 02:53:49;;;;;;;8.70;5.28;;;;;;;3.46;83.10;100082.71;1728065;83;21139;-77
2020/12/25 02:56:19;;;;;;;8.03;4.72;;;;;;;3.47;83.13;100073.84;1728439;83;21260;-77
2020/12/25 02:58:45;;;;;;;;;;;;;;;3.46;83.14;100082.71;1730696;83;21767;-77
2020/12/25 03:01:14;;;;;;;7.47;4.62;;;;;;;3.46;83.17;100087.98;1760747;81;20240;-77
2020/12/25 03:03:40;;;;;;;9.08;4.75;;;;;;;3.46;83.19;100081.88;1739506;82;21556;-77
2020/12/25 03:06:07;;;;;;;7.35;4.78;;;;;;;3.47;83.24;100092.78;1727003;83;21127;-77
2020/12/25 03:08:34;;;;;;;8.48;4.62;;;;;;;3.45;83.25;100091.58;1770083;80;22000;-77
2020/12/25 03:11:00;;;;;;;10.18;4.87;;;;;;;3.43;83.28;100086.94;1759956;81;21176;-77
2020/12/25 03:13:27;;;;;;;8.40;5.50;;;;;;;3.44;83.28;100091.73;1787053;79;21557;-77
2020/12/25 03:15:53;;;;;;;8.35;4.12;;;;;;;3.42;83.30;100087.89;1786659;80;21163;-77
2020/12/25 03:18:19;;;;;;;6.97;4.70;;;;;;;3.42;83.32;100086.58;1786672;79;21151;-77
2020/12/25 03:20:46;;;;;;;9.43;4.62;;;;;;;3.40;83.32;100092.48;1786545;80;21167;-77
2020/12/25 03:23:12;;;;;;;6.15;3.90;;;;;;;3.42;83.34;100095.80;1749175;81;21150;-77
2020/12/25 03:25:39;;;;;;;7.72;4.30;;;;;;;3.42;83.36;100101.07;1787051;80;21057;-77
2020/12/25 03:28:05;;;;;;;10.70;4.83;;;;;;;3.42;83.37;100103.70;1786403;80;21120;-77
2020/12/25 03:30:31;;;;;;;6.90;4.60;;;;;;;3.42;83.41;100114.25;1786829;79;21620;-77
2020/12/25 03:32:58;;;;;;;6.60;4.55;;;;;;;3.40;83.41;100112.24;1786785;80;21566;-77
2020/12/25 03:35:24;;;;;;;6.53;3.87;;;;;;;3.42;83.43;100118.20;1786763;80;21144;-77
2020/12/25 03:37:50;;;;;;;8.98;4.87;;;;;;;3.39;83.44;100111.87;1786286;80;21124;-77
2020/12/25 03:40:16;;;;;;;7.30;4.72;;;;;;;3.40;83.47;100113.56;1753374;81;21159;-77
2020/12/25 03:42:43;;;;;;;8.13;4.70;;;;;;;3.39;83.49;100117.16;1753456;81;21180;-77
2020/12/25 03:45:10;;;;;;;9.43;5.40;;;;;;;3.38;83.52;100112.84;1690939;84;21284;-77
2020/12/25 03:47:36;;;;;;;7.72;4.25;;;;;;;3.37;83.52;100113.83;1753353;81;21169;-77
2020/12/25 03:50:03;;;;;;;6.65;3.77;;;;;;;3.38;83.52;100118.11;1753303;81;21159;-77
2020/12/25 03:52:29;;;;;;;9.23;4.22;;;;;;;3.40;83.53;100125.89;1753409;81;21151;-76
2020/12/25 03:54:55;;;;;;;7.65;4.50;;;;;;;3.40;83.54;100124.10;1753100;81;21577;-77
2020/12/25 03:57:22;;;;;;;12.25;4.85;;;;;;;3.40;83.55;100128.05;1691066;84;21215;-77
2020/12/25 03:59:48;;;;;;;10.43;5.95;;;;;;;3.41;83.58;100125.75;1753232;81;21196;-77
2020/12/25 04:02:14;;;;;;;10.35;5.05;;;;;;;3.42;83.62;100128.74;1753277;81;21120;-76
2020/12/25 04:04:41;;;;;;;7.05;4.53;;;;;;;3.42;83.65;100132.70;1753417;81;21117;-77
2020/12/25 04:07:07;;;;;;;7.10;5.45;;;;;;;3.39;83.66;100132.97;1774368;80;21124;-77
2020/12/25 04:09:33;;;;;;;10.03;5.05;;;;;;;3.40;83.68;100135.13;1776060;80;21653;-77
2020/12/25 04:12:00;;;;;;;11.05;5.37;;;;;;;3.37;83.71;100140.18;1774554;80;21191;-77
2020/12/25 04:14:26;;;;;;;10.03;5.17;;;;;;;3.34;83.72;100143.56;1774669;80;21195;-77
2020/12/25 04:16:52;;;;;;;8.43;4.90;;;;;;;3.31;83.72;100142.00;1774660;80;21129;-76
2020/12/25 04:19:18;;;;;;;11.03;6.08;;;;;;;3.31;83.73;100139.36;1774809;80;21116;-77
2020/12/25 04:21:45;;;;;;;10.53;5.20;;;;;;;3.31;83.77;100147.74;1774869;80;22050;-77
2020/12/25 04:24:11;;;;;;;9.90;5.08;;;;;;;3.30;83.78;100151.37;1774351;80;21565;-77
2020/12/25 04:26:37;;;;;;;10.50;4.83;;;;;;;3.30;83.79;100154.84;1774668;80;21238;-76
2020/12/25 04:29:03;;;;;;;10.53;4.67;;;;;;;3.32;83.82;100158.17;1774675;80;21243;-77
2020/12/25 04:31:30;;;;;;;11.38;5.20;;;;;;;3.34;83.86;100164.13;1772294;80;21125;-77
2020/12/25 04:33:56;;;;;;;10.43;4.80;;;;;;;3.34;83.89;100158.05;1774820;80;21256;-76
2020/12/25 04:36:22;;;;;;;8.53;5.37;;;;;;;3.32;83.90;100162.13;1774113;80;21144;-76
2020/12/25 04:38:48;;;;;;;8.75;4.90;;;;;;;3.30;83.93;100160.11;1774847;80;21546;-76
2020/12/25 04:41:15;;;;;;;10.23;5.20;;;;;;;3.28;83.95;100162.02;1774731;80;21136;-76
2020/12/25 04:43:41;;;;;;;8.13;5.90;;;;;;;3.25;83.98;100159.65;1774857;80;21164;-76
2020/12/25 04:46:08;;;;;;;9.05;5.33;;;;;;;3.23;83.98;100164.70;1774416;80;21959;-77
2020/12/25 04:48:35;;;;;;;8.35;4.75;;;;;;;3.21;84.01;100158.71;1768070;80;21636;-76
2020/12/25 04:51:03;;;;;;;6.78;4.62;;;;;;;3.19;84.02;100165.45;1765161;80;21557;-77
2020/12/25 04:53:30;;;;;;;7.58;4.55;;;;;;;3.19;84.04;100168.08;1757191;81;21104;-76
2020/12/25 04:55:57;;;;;;;8.73;4.65;;;;;;;3.17;84.03;100169.98;1756975;81;21164;-77
2020/12/25 04:58:24;;;;;;;8.28;4.45;;;;;;;3.17;84.04;100169.98;1757206;81;21244;-76
2020/12/25 05:01:06;;;;;;;7.87;4.78;;;;;;;3.17;84.09;100173.94;1757126;80;21128;-77
2020/12/25 05:03:35;;;;;;;8.85;5.08;;;;;;;3.17;84.09;100171.30;1757013;81;21151;-76
2020/12/25 05:06:14;;;;;;;6.12;3.83;;;;;;;3.16;84.13;100174.93;1757395;80;21168;-76
2020/12/25 05:08:43;;;;;;;7.17;3.67;;;;;;;3.16;84.16;100179.36;1754986;80;21165;-77
2020/12/25 05:11:12;;;;;;;8.98;4.78;;;;;;;3.15;84.20;100183.78;1752206;81;21135;-77
2020/12/25 05:13:49;;;;;;;10.53;4.90;;;;;;;3.14;84.22;100186.53;1752923;81;21565;-77
2020/12/25 05:16:16;;;;;;;11.15;5.45;;;;;;;3.14;84.22;100191.33;1752529;81;21144;-77
2020/12/25 05:18:51;;;;;;;11.78;5.78;;;;;;;3.10;84.22;100189.91;1752712;81;21169;-77
2020/12/25 05:21:19;;;;;;;9.55;5.42;;;;;;;3.08;84.25;100189.21;1752476;81;21559;-77
2020/12/25 05:23:47;;;;;;;8.15;4.33;;;;;;;3.06;84.26;100189.83;1752591;81;21552;-77
2020/12/25 05:26:15;;;;;;;7.47;4.90;;;;;;;3.06;84.26;100192.47;1752716;81;21168;-77
2020/12/25 05:28:45;;;;;;;9.30;4.50;;;;;;;3.05;84.27;100186.83;1752489;81;21148;-77
2020/12/25 05:31:12;;;;;;;6.83;3.80;;;;;;;3.04;84.27;100190.42;1752593;81;21165;-77
2020/12/25 05:33:39;;;;;;;8.20;4.03;;;;;;;3.04;84.30;100193.06;1752381;81;21140;-76
2020/12/25 05:36:13;;;;;;;8.40;5.17;;;;;;;3.03;84.32;100191.89;1752717;81;21188;-76
2020/12/25 05:38:41;;;;;;;101.10;48.40;;;;;;;3.03;84.34;100197.96;1752483;81;21176;-77
2020/12/25 05:41:08;;;;;;;26.20;11.88;;;;;;;3.03;84.35;100197.96;1743191;81;21590;-76
2020/12/25 05:43:34;;;;;;;42.33;12.37;;;;;;;3.05;84.39;100203.95;1772938;81;21188;-76
2020/12/25 05:46:01;;;;;;;49.53;13.68;;;;;;;3.05;84.40;100202.64;1771845;80;21502;-76
2020/12/25 05:48:27;;;;;;;19.40;6.53;;;;;;;3.06;84.44;100206.95;1773010;81;21160;-76
2020/12/25 05:50:53;;;;;;;11.95;6.05;;;;;;;3.08;84.43;100206.81;1760712;80;21180;-76
2020/12/25 05:53:20;;;;;;;13.03;4.90;;;;;;;3.06;84.41;100214.02;1752443;81;21164;-77
2020/12/25 05:55:46;;;;;;;14.18;5.80;;;;;;;3.05;84.43;100211.86;1752542;81;21577;-76
2020/12/25 05:58:14;;;;;;;11.90;5.37;;;;;;;3.06;84.45;100214.86;1760734;81;21164;-77
2020/12/25 06:00:42;;;;;;;5.85;3.65;;;;;;;3.05;84.46;100213.17;1752755;81;22079;-77
2020/12/25 06:03:13;;;;;;;5.65;3.98;;;;;;;3.05;84.47;100222.88;1752444;81;21136;-76
2020/12/25 06:08:32;;;;;;;6.58;3.72;;;;;;;3.11;84.50;100219.72;1797936;77;23053;-77
2020/12/25 06:11:01;;;;;;;9.85;4.00;;;;;;;3.07;84.51;100234.95;1758955;80;21493;-78
2020/12/25 06:13:31;;;;;;;6.25;4.35;;;;;;;3.09;84.53;100229.56;1756991;81;21225;-77
2020/12/25 06:15:57;;;;;;;;;;;;;;;3.10;84.54;100231.25;1758140;81;21057;-77
2020/12/25 06:18:58;;;;;;;7.60;4.17;;;;;;;3.08;84.55;100238.42;1757007;81;20270;-77
2020/12/25 06:21:58;;;;;;;17.12;8.38;;;;;;;3.06;84.54;100240.36;1757056;81;21020;-77
2020/12/25 06:24:32;;;;;;;;;;;;;;;3.03;84.54;100253.28;1759751;80;21112;-77
2020/12/25 06:27:00;;;;;;;31.35;12.75;;;;;;;2.99;84.52;100264.55;1757066;81;21288;-78
2020/12/25 06:29:27;;;;;;;29.05;11.18;;;;;;;2.95;84.52;100265.78;1756960;81;21127;-77
2020/12/25 06:31:58;;;;;;;23.98;9.65;;;;;;;2.94;84.51;100269.84;1756790;81;21277;-77
2020/12/25 06:34:44;;;;;;;26.07;11.35;;;;;;;2.94;84.48;100273.80;1783714;80;21124;-77
2020/12/25 06:37:13;;;;;;;28.50;10.28;;;;;;;2.92;84.47;100276.54;1787809;80;21120;-77
2020/12/25 06:39:53;;;;;;;42.37;12.80;;;;;;;2.92;84.46;100284.95;1788211;80;21589;-77
2020/12/25 06:42:32;;;;;;;19.32;7.53;;;;;;;2.93;84.45;100285.28;1788071;80;26538;-77
2020/12/25 06:44:57;;;;;;;21.10;9.45;;;;;;;2.90;84.44;100288.17;1788145;80;21111;-77
2020/12/25 06:47:32;;;;;;;18.37;6.75;;;;;;;2.90;84.46;100299.55;1788190;80;21139;-77
2020/12/25 06:49:58;;;;;;;14.85;6.80;;;;;;;2.89;84.44;100299.66;1788463;80;21061;-77
2020/12/25 06:52:29;;;;;;;8.83;5.22;;;;;;;2.88;84.42;100305.91;1740142;81;22062;-78
2020/12/25 06:54:56;;;;;;;14.38;6.50;;;;;;;2.85;84.41;100311.42;1756921;81;21147;-77
2020/12/25 06:57:27;;;;;;;10.08;4.92;;;;;;;2.83;84.41;100313.32;1757039;81;21115;-77
2020/12/25 06:59:58;;;;;;;11.63;4.00;;;;;;;2.82;84.41;100316.91;1757139;81;21580;-77
2020/12/25 07:02:25;;;;;;;16.62;6.95;;;;;;;2.78;84.37;100315.50;1756952;80;21601;-78
2020/12/25 07:04:56;;;;;;;13.55;4.28;;;;;;;2.76;84.33;100316.09;1757062;81;22147;-77
2020/12/25 07:07:22;;;;;;;13.20;5.12;;;;;;;2.75;84.31;100318.35;1732055;81;21155;-77
2020/12/25 07:09:49;;;;;;;20.32;7.12;;;;;;;2.73;84.26;100323.76;1762651;80;21091;-77
2020/12/25 07:12:19;;;;;;;8.93;4.03;;;;;;;2.72;84.24;100325.18;1762863;80;21130;-77
2020/12/25 07:14:45;;;;;;;9.43;3.62;;;;;;;2.71;84.23;100335.37;1762936;81;21146;-78
2020/12/25 07:17:11;;;;;;;12.82;4.50;;;;;;;2.70;84.18;100341.59;1762914;81;21201;-78
2020/12/25 07:19:38;;;;;;;10.08;3.98;;;;;;;2.71;84.18;100345.91;1762305;81;21139;-77
2020/12/25 07:22:04;;;;;;;6.97;3.58;;;;;;;2.72;84.17;100359.41;1762091;81;21143;-77
2020/12/25 07:24:31;;;;;;;10.65;4.30;;;;;;;2.71;84.16;100364.34;1762431;81;21144;-77
2020/12/25 07:26:57;;;;;;;62.33;20.82;;;;;;;2.70;84.15;100362.66;1762088;81;21135;-77
2020/12/25 07:29:23;;;;;;;23.60;8.98;;;;;;;2.68;84.12;100364.55;1771598;80;22048;-77
2020/12/25 07:31:53;;;;;;;24.25;9.35;;;;;;;2.68;84.09;100367.19;1793504;80;21926;-77
2020/12/25 07:34:23;;;;;;;50.63;13.43;;;;;;;2.54;84.21;100352.48;1793852;80;21127;-77
2020/12/25 07:36:51;;;;;;;34.48;10.40;;;;;;;2.54;84.21;100352.48;1793515;78;21131;-77
2020/12/25 07:39:17;;;;;;;14.53;6.03;;;;;;;2.64;84.00;100372.36;1793781;80;21142;-77
2020/12/25 07:41:44;;;;;;;13.03;5.60;;;;;;;2.66;83.97;100378.33;1767414;80;21572;-78
2020/12/25 07:44:10;;;;;;;9.78;5.22;;;;;;;2.66;83.95;100379.64;1793451;80;21107;-78
2020/12/25 07:46:37;;;;;;;9.98;4.62;;;;;;;2.65;83.92;100376.64;1793521;80;21154;-77
2020/12/25 07:49:04;;;;;;;9.63;5.10;;;;;;;2.65;83.89;100374.85;1762286;81;21142;-77
2020/12/25 07:51:31;;;;;;;16.23;5.78;;;;;;;2.68;83.86;100374.61;1762344;81;21131;-77
2020/12/25 07:53:59;;;;;;;13.85;5.65;;;;;;;2.68;83.83;100382.98;1762186;80;21920;-77
2020/12/25 07:56:33;;;;;;;19.27;7.30;;;;;;;2.68;83.81;100385.14;1762201;81;21580;-77
2020/12/25 07:59:00;;;;;;;13.68;5.05;;;;;;;2.70;83.80;100387.19;1762439;81;21210;-77
2020/12/25 08:01:28;;;;;;;8.38;4.08;;;;;;;2.70;83.75;100391.62;1761957;80;21139;-77
2020/12/25 08:03:57;;;;;;;10.50;4.97;;;;;;;2.72;83.74;100393.64;1764403;80;21159;-77
2020/12/25 08:06:25;;;;;;;12.55;4.67;;;;;;;2.74;83.70;100395.69;1761667;81;21253;-77
2020/12/25 08:08:58;;;;;;;10.30;5.42;;;;;;;2.79;83.65;100398.78;1756556;81;21885;-77
2020/12/25 08:11:25;;;;;;;6.83;3.20;;;;;;;2.82;83.65;100405.12;1750023;81;21556;-77
2020/12/25 08:13:54;;;;;;;4.92;2.67;;;;;;;2.84;83.61;100407.17;1726847;81;21549;-77
2020/12/25 08:16:20;;;;;;;11.08;4.35;;;;;;;2.84;83.57;100409.33;1756770;80;21155;-77
2020/12/25 08:18:48;;;;;;;13.90;4.97;;;;;;;2.88;83.55;100409.92;1756508;80;21238;-77
2020/12/25 08:21:18;;;;;;;9.38;5.62;;;;;;;2.91;83.55;100418.90;1756406;80;21143;-77
2020/12/25 08:23:44;;;;;;;11.68;3.98;;;;;;;2.92;83.50;100423.22;1756447;81;25016;-77
2020/12/25 08:26:10;;;;;;;8.60;3.98;;;;;;;2.91;83.48;100420.22;1756394;81;21560;-77
2020/12/25 08:28:36;;;;;;;7.10;3.00;;;;;;;2.90;83.48;100430.37;1706504;78;21549;-77
2020/12/25 08:31:18;;;;;;;7.85;3.65;;;;;;;2.91;83.46;100434.70;1756214;81;21267;-77
2020/12/25 08:33:54;;;;;;;5.47;2.85;;;;;;;2.87;83.44;100436.73;1756261;80;21557;-77
2020/12/25 08:36:21;;;;;;;5.45;3.20;;;;;;;2.85;83.40;100440.45;1756165;80;21128;-77
2020/12/25 08:38:47;;;;;;;8.13;3.10;;;;;;;2.83;83.38;100442.35;1756419;80;21148;-77
2020/12/25 08:41:13;;;;;;;5.53;3.02;;;;;;;2.83;83.36;100447.62;1756203;81;21160;-77
2020/12/25 08:43:41;;;;;;;9.33;3.67;;;;;;;2.83;83.33;100446.30;1756340;80;21222;-77
2020/12/25 08:46:07;;;;;;;6.60;2.92;;;;;;;2.83;83.31;100459.00;1776514;80;21112;-78
2020/12/25 08:48:35;;;;;;;10.88;4.40;;;;;;;2.83;83.30;100455.52;1785000;79;21528;-77
2020/12/25 08:51:10;;;;;;;7.17;2.87;;;;;;;2.83;83.30;100452.88;1787493;80;21138;-77
2020/12/25 08:53:36;;;;;;;5.90;4.00;;;;;;;2.82;83.30;100463.05;1786390;80;21103;-77
2020/12/25 08:56:22;;;;;;;7.25;3.27;;;;;;;2.78;83.25;100466.91;1787335;80;21191;-77
2020/12/25 08:59:05;;;;;;;8.98;5.37;;;;;;;2.73;83.25;100470.36;1755918;80;21123;-77
2020/12/25 09:01:35;;;;;;;10.05;4.28;;;;;;;2.74;83.24;100483.89;1756359;80;21108;-77
2020/12/25 09:04:03;;;;;;;7.00;3.02;;;;;;;2.75;83.20;100484.23;1785688;79;21541;-77
2020/12/25 09:06:29;;;;;;;5.62;3.17;;;;;;;2.74;83.19;100487.84;1784812;79;21151;-77
2020/12/25 09:08:56;;;;;;;8.93;4.55;;;;;;;2.72;83.16;100482.68;1789596;80;21201;-77
2020/12/25 09:11:24;;;;;;;5.60;2.98;;;;;;;2.73;83.14;100484.36;1793101;80;21159;-77
2020/12/25 09:13:51;;;;;;;6.03;2.72;;;;;;;2.76;83.12;100491.18;1793312;80;21099;-77
2020/12/25 09:16:17;;;;;;;8.35;3.85;;;;;;;2.79;83.11;100489.16;1793380;80;21032;-78
2020/12/25 09:18:44;;;;;;;26.90;11.80;;;;;;;2.82;83.08;100493.33;1780277;80;21130;-78
2020/12/25 09:21:12;;;;;;;13.68;6.50;;;;;;;2.83;83.06;100496.34;1761894;81;21198;-77
2020/12/25 09:23:39;;;;;;;12.95;6.50;;;;;;;2.85;83.03;100493.12;1761905;81;21556;-77
2020/12/25 09:26:06;;;;;;;12.13;3.60;;;;;;;2.90;83.04;100501.49;1762032;81;21576;-77
2020/12/25 09:28:32;;;;;;;10.88;4.47;;;;;;;2.92;83.03;100500.91;1761836;81;21142;-77
2020/12/25 09:30:59;;;;;;;6.47;3.42;;;;;;;2.92;83.00;100499.59;1762113;81;21547;-78
2020/12/25 09:33:25;;;;;;;9.23;5.25;;;;;;;2.91;82.97;100509.28;1761982;81;21532;-78
2020/12/25 09:35:51;;;;;;;26.00;10.95;;;;;;;2.90;82.94;100504.97;1761622;81;21123;-78
2020/12/25 09:38:18;;;;;;;12.55;6.53;;;;;;;2.90;82.87;100509.39;1762205;81;21088;-78
2020/12/25 09:40:50;;;;;;;30.55;12.05;;;;;;;2.94;82.86;100508.20;1761764;80;21118;-78
2020/12/25 09:43:16;;;;;;;6.05;3.35;;;;;;;2.98;82.81;100509.17;1762080;80;21119;-78
2020/12/25 09:45:43;;;;;;;3.70;2.45;;;;;;;3.01;82.80;100502.81;1764034;80;21188;-77
2020/12/25 09:48:09;;;;;;;7.22;3.55;;;;;;;2.94;82.74;100501.14;1764055;80;21493;-77
2020/12/25 09:50:35;;;;;;;11.68;5.12;;;;;;;2.90;82.68;100504.13;1761781;81;21552;-77
2020/12/25 09:53:02;;;;;;;16.15;7.20;;;;;;;2.88;82.65;100510.84;1761946;81;21194;-77
2020/12/25 09:55:28;;;;;;;13.43;6.35;;;;;;;2.84;82.63;100510.72;1765055;80;21045;-77
2020/12/25 09:57:54;;;;;;;19.57;8.60;;;;;;;2.83;82.59;100510.82;1793010;80;21135;-78
2020/12/25 10:00:21;;;;;;;43.35;17.77;;;;;;;2.82;82.51;100506.50;1775161;80;21190;-77
2020/12/25 10:02:47;;;;;;;41.08;14.65;;;;;;;2.84;82.49;100514.67;1761634;81;21121;-78
2020/12/25 10:05:13;;;;;;;16.93;8.35;;;;;;;2.83;82.44;100512.98;1761609;81;21170;-77
2020/12/25 10:07:40;;;;;;;24.02;12.30;;;;;;;2.80;82.38;100511.06;1760921;81;21548;-78
2020/12/25 10:10:07;;;;;;;28.27;17.57;;;;;;;2.77;82.33;100508.19;1756374;81;22061;-77
2020/12/25 10:12:34;;;;;;;21.65;11.85;;;;;;;2.76;82.30;100513.56;1761453;80;21596;-77
2020/12/25 10:15:02;;;;;;;74.25;35.00;;;;;;;2.74;82.27;100512.38;1787221;80;21638;-77
2020/12/25 10:17:30;;;;;;;64.07;27.82;;;;;;;2.75;82.24;100509.24;1787516;80;21166;-77
2020/12/25 10:19:56;;;;;;;61.75;26.75;;;;;;;2.77;82.25;100509.51;1786290;80;21151;-77
2020/12/25 10:22:22;;;;;;;127.35;52.10;;;;;;;2.78;82.21;100507.72;1787594;80;21293;-77
2020/12/25 10:24:49;;;;;;;50.12;20.95;;;;;;;2.78;82.20;100505.09;1785062;80;21151;-77
2020/12/25 10:27:16;;;;;;;17.40;10.98;;;;;;;2.79;82.18;100512.00;1778343;79;21136;-77
2020/12/25 10:29:42;;;;;;;28.00;14.47;;;;;;;2.76;82.14;100507.82;1770666;80;21152;-77
2020/12/25 10:32:08;;;;;;;57.83;29.37;;;;;;;2.74;82.12;100515.48;1786876;80;21504;-77
2020/12/25 10:34:34;;;;;;;18.77;11.08;;;;;;;2.73;82.12;100512.01;1772717;80;21595;-77
2020/12/25 10:37:01;;;;;;;28.32;17.07;;;;;;;2.72;82.09;100522.17;1781922;80;21181;-77
2020/12/25 10:39:27;;;;;;;11.97;6.92;;;;;;;2.70;82.06;100520.62;1764030;80;21138;-77
2020/12/25 10:41:53;;;;;;;12.15;7.60;;;;;;;2.69;82.03;100518.94;1772013;80;21151;-77
2020/12/25 10:44:19;;;;;;;10.68;6.80;;;;;;;2.72;82.03;100517.38;1769796;80;21147;-77
2020/12/25 10:46:46;;;;;;;10.55;6.62;;;;;;;2.76;82.03;100512.25;1769814;80;22180;-76
2020/12/25 10:49:12;;;;;;;16.15;8.08;;;;;;;2.80;82.02;100517.64;1707007;83;21205;-76
2020/12/25 10:51:40;;;;;;;16.70;10.10;;;;;;;2.80;82.02;100512.38;1706865;84;21223;-77
2020/12/25 10:54:07;;;;;;;13.32;7.80;;;;;;;2.86;82.03;100511.89;1677688;82;21620;-78
2020/12/25 10:56:33;;;;;;;12.28;7.83;;;;;;;2.87;82.00;100514.90;1733520;82;21216;-77
2020/12/25 10:58:59;;;;;;;17.10;9.28;;;;;;;2.82;82.00;100513.08;1731294;82;21213;-92
2020/12/25 11:01:27;;;;;;;13.08;6.97;;;;;;;2.81;82.01;100514.91;1717417;82;21172;-91
2020/12/25 11:03:55;;;;;;;17.07;9.63;;;;;;;2.79;81.99;100514.64;1702838;82;21161;-90
2020/12/25 11:06:35;;;;;;;20.20;9.05;;;;;;;2.72;81.95;100516.06;1724700;83;21179;-77
2020/12/25 11:09:05;;;;;;;24.92;12.55;;;;;;;2.69;81.97;100521.09;1712012;82;21461;-77
2020/12/25 11:11:35;;;;;;;13.40;8.23;;;;;;;2.67;81.94;100513.80;1691702;83;21234;-77
2020/12/25 11:14:02;;;;;;;10.48;6.45;;;;;;;2.65;81.92;100515.70;1695811;84;21775;-77
2020/12/25 11:16:30;;;;;;;28.15;14.50;;;;;;;2.63;81.91;100515.46;1715597;82;21624;-77
2020/12/25 11:18:58;;;;;;;11.00;6.37;;;;;;;2.63;81.88;100520.73;1700228;83;21132;-76
2020/12/25 11:21:27;;;;;;;13.83;6.17;;;;;;;2.65;81.86;100525.38;1700762;83;21210;-77
2020/12/25 11:23:54;;;;;;;19.90;10.18;;;;;;;2.67;81.86;100523.49;1711038;82;21995;-77
2020/12/25 11:26:28;;;;;;;32.63;16.37;;;;;;;2.68;81.83;100527.78;1708182;82;21203;-76
2020/12/25 11:28:56;;;;;;;15.88;8.60;;;;;;;2.69;81.80;100525.52;1729278;81;21186;-76
2020/12/25 11:31:23;;;;;;;20.80;10.82;;;;;;;2.70;81.79;100525.89;1726073;82;21233;-75
2020/12/25 11:33:49;;;;;;;25.37;13.05;;;;;;;2.69;81.78;100525.52;1713491;82;21604;-76
2020/12/25 11:36:19;;;;;;;15.95;8.15;;;;;;;2.72;81.77;100534.49;1700436;84;21865;-77